sensor_id;sensor_type;location;lat;lon;timestamp;pressure;altitude;pressure_sealevel;temperature;humidity
13476;BME280;6810;63.824;20.288;2022-08-19T00:00:51;101795.69;;;16.43;75.85
13476;BME280;6810;63.824;20.288;2022-08-19T00:03:38;101802.88;;;16.42;75.48
13476;BME280;6810;63.824;20.288;2022-08-19T00:06:27;101799.22;;;16.43;75.99
13476;BME280;6810;63.824;20.288;2022-08-19T00:09:17;101798.31;;;16.44;75.74
13476;BME280;6810;63.824;20.288;2022-08-19T00:12:05;101801.84;;;16.45;76.15
13476;BME280;6810;63.824;20.288;2022-08-19T00:14:52;101803.69;;;16.44;75.68
13476;BME280;6810;63.824;20.288;2022-08-19T00:17:40;101810.78;;;16.45;75.99
13476;BME280;6810;63.824;20.288;2022-08-19T00:20:28;101815.22;;;16.46;76.20
13476;BME280;6810;63.824;20.288;2022-08-19T00:23:16;101815.22;;;16.46;76.10
13476;BME280;6810;63.824;20.288;2022-08-19T00:26:04;101807.13;;;16.46;76.29
13476;BME280;6810;63.824;20.288;2022-08-19T00:28:51;101814.38;;;16.46;76.46
13476;BME280;6810;63.824;20.288;2022-08-19T00:31:39;101807.13;;;16.46;76.60
13476;BME280;6810;63.824;20.288;2022-08-19T00:34:26;101777.09;;;16.26;76.81
13476;BME280;6810;63.824;20.288;2022-08-19T00:37:16;101818.56;;;16.50;76.34
13476;BME280;6810;63.824;20.288;2022-08-19T00:40:04;101817.59;;;16.51;76.80
13476;BME280;6810;63.824;20.288;2022-08-19T00:42:52;101821.16;;;16.51;76.76
13476;BME280;6810;63.824;20.288;2022-08-19T00:45:42;101833.66;;;16.52;77.02
13476;BME280;6810;63.824;20.288;2022-08-19T00:48:29;101826.44;;;16.53;76.82
13476;BME280;6810;63.824;20.288;2022-08-19T00:51:16;101822.34;;;16.47;76.88
13476;BME280;6810;63.824;20.288;2022-08-19T00:54:03;101819.44;;;16.50;76.50
13476;BME280;6810;63.824;20.288;2022-08-19T00:56:58;101821.84;;;16.55;76.71
13476;BME280;6810;63.824;20.288;2022-08-19T00:59:47;101815.69;;;16.53;76.84
13476;BME280;6810;63.824;20.288;2022-08-19T01:02:38;101820.97;;;16.54;76.79
13476;BME280;6810;63.824;20.288;2022-08-19T01:05:27;101823.97;;;16.50;77.22
13476;BME280;6810;63.824;20.288;2022-08-19T01:08:17;101808.88;;;16.47;77.52
13476;BME280;6810;63.824;20.288;2022-08-19T01:11:06;101807.50;;;16.54;77.50
13476;BME280;6810;63.824;20.288;2022-08-19T01:13:54;101812.69;;;16.57;78.10
13476;BME280;6810;63.824;20.288;2022-08-19T01:16:41;101812.69;;;16.57;77.52
13476;BME280;6810;63.824;20.288;2022-08-19T01:19:33;101805.47;;;16.58;77.80
13476;BME280;6810;63.824;20.288;2022-08-19T01:25:08;101808.06;;;16.59;78.46
13476;BME280;6810;63.824;20.288;2022-08-19T01:27:55;101807.19;;;16.59;78.26
13476;BME280;6810;63.824;20.288;2022-08-19T01:30:43;101792.03;;;16.58;78.21
13476;BME280;6810;63.824;20.288;2022-08-19T01:33:33;101788.97;;;16.50;78.28
13476;BME280;6810;63.824;20.288;2022-08-19T01:36:43;101803.00;;;16.55;78.68
13476;BME280;6810;63.824;20.288;2022-08-19T01:39:30;101818.28;;;16.54;78.89
13476;BME280;6810;63.824;20.288;2022-08-19T01:42:17;101819.66;;;16.47;78.83
13476;BME280;6810;63.824;20.288;2022-08-19T01:45:05;101830.97;;;16.52;78.62
13476;BME280;6810;63.824;20.288;2022-08-19T01:47:52;101820.28;;;16.51;79.05
13476;BME280;6810;63.824;20.288;2022-08-19T01:50:39;101814.06;;;16.50;79.14
13476;BME280;6810;63.824;20.288;2022-08-19T01:53:27;101806.84;;;16.51;78.80
13476;BME280;6810;63.824;20.288;2022-08-19T01:56:14;101798.31;;;16.44;79.05
13476;BME280;6810;63.824;20.288;2022-08-19T01:59:05;101796.25;;;16.48;79.66
13476;BME280;6810;63.824;20.288;2022-08-19T02:01:55;101797.50;;;16.42;78.87
13476;BME280;6810;63.824;20.288;2022-08-19T02:04:42;101806.56;;;16.41;79.60
13476;BME280;6810;63.824;20.288;2022-08-19T02:07:29;101795.78;;;16.41;79.55
13476;BME280;6810;63.824;20.288;2022-08-19T02:10:19;101792.31;;;16.39;79.38
13476;BME280;6810;63.824;20.288;2022-08-19T02:13:07;101796.00;;;16.38;79.96
13476;BME280;6810;63.824;20.288;2022-08-19T02:15:54;101783.69;;;16.34;79.84
13476;BME280;6810;63.824;20.288;2022-08-19T02:18:41;101745.91;;;16.09;79.40
13476;BME280;6810;63.824;20.288;2022-08-19T02:21:28;101781.09;;;16.33;79.71
13476;BME280;6810;63.824;20.288;2022-08-19T02:24:15;101779.38;;;16.32;80.35
13476;BME280;6810;63.824;20.288;2022-08-19T02:27:03;101785.59;;;16.32;80.13
13476;BME280;6810;63.824;20.288;2022-08-19T02:29:50;101782.06;;;16.32;80.62
13476;BME280;6810;63.824;20.288;2022-08-19T02:32:40;101774.09;;;16.30;80.00
13476;BME280;6810;63.824;20.288;2022-08-19T02:35:27;101781.38;;;16.28;80.80
13476;BME280;6810;63.824;20.288;2022-08-19T02:38:14;101790.44;;;16.27;80.11
13476;BME280;6810;63.824;20.288;2022-08-19T02:41:38;101765.94;;;16.18;80.49
13476;BME280;6810;63.824;20.288;2022-08-19T02:44:26;101782.47;;;16.26;80.38
13476;BME280;6810;63.824;20.288;2022-08-19T02:47:13;101786.97;;;16.25;80.40
13476;BME280;6810;63.824;20.288;2022-08-19T02:50:01;101792.34;;;16.25;80.56
13476;BME280;6810;63.824;20.288;2022-08-19T02:52:48;101794.28;;;16.23;81.39
13476;BME280;6810;63.824;20.288;2022-08-19T02:55:35;101788.16;;;16.21;80.75
13476;BME280;6810;63.824;20.288;2022-08-19T02:58:23;101784.69;;;16.19;81.46
13476;BME280;6810;63.824;20.288;2022-08-19T03:01:26;101781.22;;;16.17;81.36
13476;BME280;6810;63.824;20.288;2022-08-19T03:04:15;101771.72;;;16.12;82.06
13476;BME280;6810;63.824;20.288;2022-08-19T03:07:02;101777.31;;;16.09;81.81
13476;BME280;6810;63.824;20.288;2022-08-19T03:09:49;101777.50;;;16.06;81.59
13476;BME280;6810;63.824;20.288;2022-08-19T03:12:37;101786.88;;;16.13;82.16
13476;BME280;6810;63.824;20.288;2022-08-19T03:15:30;101759.75;;;15.89;82.51
13476;BME280;6810;63.824;20.288;2022-08-19T03:18:17;101798.63;;;16.12;82.02
13476;BME280;6810;63.824;20.288;2022-08-19T03:21:06;101774.53;;;15.96;82.01
13476;BME280;6810;63.824;20.288;2022-08-19T03:23:54;101807.66;;;16.11;82.69
13476;BME280;6810;63.824;20.288;2022-08-19T03:26:44;101808.50;;;16.11;82.44
13476;BME280;6810;63.824;20.288;2022-08-19T03:29:32;101801.03;;;16.02;82.43
13476;BME280;6810;63.824;20.288;2022-08-19T03:32:19;101815.53;;;16.14;82.52
13476;BME280;6810;63.824;20.288;2022-08-19T03:35:11;101794.78;;;16.02;82.74
13476;BME280;6810;63.824;20.288;2022-08-19T03:37:59;101826.31;;;16.14;82.80
13476;BME280;6810;63.824;20.288;2022-08-19T03:40:46;101789.97;;;15.93;82.86
13476;BME280;6810;63.824;20.288;2022-08-19T03:43:37;101819.84;;;16.16;83.19
13476;BME280;6810;63.824;20.288;2022-08-19T03:46:26;101822.44;;;16.18;83.53
13476;BME280;6810;63.824;20.288;2022-08-19T03:49:14;101816.47;;;16.13;82.80
13476;BME280;6810;63.824;20.288;2022-08-19T03:52:03;101833.09;;;16.19;83.05
13476;BME280;6810;63.824;20.288;2022-08-19T03:54:50;101832.13;;;16.20;83.30
13476;BME280;6810;63.824;20.288;2022-08-19T03:57:37;101828.59;;;16.20;83.21
13476;BME280;6810;63.824;20.288;2022-08-19T04:00:25;101832.03;;;16.22;83.29
13476;BME280;6810;63.824;20.288;2022-08-19T04:03:12;101818.59;;;16.22;83.14
13476;BME280;6810;63.824;20.288;2022-08-19T04:05:59;101823.88;;;16.23;83.47
13476;BME280;6810;63.824;20.288;2022-08-19T04:08:56;101816.66;;;16.24;83.83
13476;BME280;6810;63.824;20.288;2022-08-19T04:11:51;101808.59;;;16.24;83.29
13476;BME280;6810;63.824;20.288;2022-08-19T04:14:39;101819.25;;;16.25;83.71
13476;BME280;6810;63.824;20.288;2022-08-19T04:17:26;101817.16;;;16.16;83.38
13476;BME280;6810;63.824;20.288;2022-08-19T04:20:13;101822.81;;;16.26;83.34
13476;BME280;6810;63.824;20.288;2022-08-19T04:23:00;101830.91;;;16.26;83.92
13476;BME280;6810;63.824;20.288;2022-08-19T04:25:47;101821.38;;;16.20;84.08
13476;BME280;6810;63.824;20.288;2022-08-19T04:28:38;101829.91;;;16.27;83.92
13476;BME280;6810;63.824;20.288;2022-08-19T04:31:28;101821.75;;;16.28;84.52
13476;BME280;6810;63.824;20.288;2022-08-19T04:34:17;101824.44;;;16.28;84.00
13476;BME280;6810;63.824;20.288;2022-08-19T04:37:26;101817.16;;;16.30;84.39
13476;BME280;6810;63.824;20.288;2022-08-19T04:40:14;101817.16;;;16.30;84.55
13476;BME280;6810;63.824;20.288;2022-08-19T04:42:59;101832.22;;;16.33;84.06
13476;BME280;6810;63.824;20.288;2022-08-19T04:45:46;101827.63;;;16.35;84.55
13476;BME280;6810;63.824;20.288;2022-08-19T04:48:34;101830.97;;;16.38;84.69
13476;BME280;6810;63.824;20.288;2022-08-19T04:51:23;101840.69;;;16.41;84.63
13476;BME280;6810;63.824;20.288;2022-08-19T04:54:10;101846.84;;;16.43;84.55
13476;BME280;6810;63.824;20.288;2022-08-19T04:57:08;101845.09;;;16.42;84.79
13476;BME280;6810;63.824;20.288;2022-08-19T04:59:56;101861.75;;;16.48;84.80
13476;BME280;6810;63.824;20.288;2022-08-19T05:02:43;101850.78;;;16.51;84.99
13476;BME280;6810;63.824;20.288;2022-08-19T05:05:33;101828.28;;;16.38;84.86
13476;BME280;6810;63.824;20.288;2022-08-19T05:08:21;101839.03;;;16.52;84.74
13476;BME280;6810;63.824;20.288;2022-08-19T05:13:57;101839.59;;;16.57;84.76
13476;BME280;6810;63.824;20.288;2022-08-19T05:16:44;101847.59;;;16.59;85.31
13476;BME280;6810;63.824;20.288;2022-08-19T05:19:51;101832.31;;;16.59;85.43
13476;BME280;6810;63.824;20.288;2022-08-19T05:22:37;101838.22;;;16.64;85.33
13476;BME280;6810;63.824;20.288;2022-08-19T05:25:24;101838.03;;;16.67;85.70
13476;BME280;6810;63.824;20.288;2022-08-19T05:28:11;101838.69;;;16.71;84.99
13476;BME280;6810;63.824;20.288;2022-08-19T05:30:58;101836.78;;;16.73;85.14
13476;BME280;6810;63.824;20.288;2022-08-19T05:33:45;101844.56;;;16.77;85.99
13476;BME280;6810;63.824;20.288;2022-08-19T05:36:45;101854.16;;;16.81;85.86
13476;BME280;6810;63.824;20.288;2022-08-19T05:39:35;101844.16;;;16.83;85.88
13476;BME280;6810;63.824;20.288;2022-08-19T05:42:23;101850.19;;;16.87;85.17
13476;BME280;6810;63.824;20.288;2022-08-19T05:45:20;101849.03;;;16.91;85.89
13476;BME280;6810;63.824;20.288;2022-08-19T05:48:09;101826.91;;;16.86;85.49
13476;BME280;6810;63.824;20.288;2022-08-19T05:50:56;101833.31;;;16.97;85.78
13476;BME280;6810;63.824;20.288;2022-08-19T05:53:43;101829.53;;;17.00;85.11
13476;BME280;6810;63.824;20.288;2022-08-19T05:56:31;101822.03;;;17.05;85.11
13476;BME280;6810;63.824;20.288;2022-08-19T05:59:19;101829.78;;;17.09;85.24
13476;BME280;6810;63.824;20.288;2022-08-19T06:02:07;101825.19;;;17.11;85.75
13476;BME280;6810;63.824;20.288;2022-08-19T06:04:54;101817.00;;;17.13;86.01
13476;BME280;6810;63.824;20.288;2022-08-19T06:07:41;101798.34;;;17.10;85.38
13476;BME280;6810;63.824;20.288;2022-08-19T06:10:28;101805.78;;;17.19;85.94
13476;BME280;6810;63.824;20.288;2022-08-19T06:13:15;101803.19;;;17.30;85.92
13476;BME280;6810;63.824;20.288;2022-08-19T06:16:02;101799.34;;;17.34;85.47
13476;BME280;6810;63.824;20.288;2022-08-19T06:18:51;101793.63;;;17.39;85.46
13476;BME280;6810;63.824;20.288;2022-08-19T06:21:40;101783.44;;;17.44;85.21
13476;BME280;6810;63.824;20.288;2022-08-19T06:24:29;101756.00;;;17.37;85.38
13476;BME280;6810;63.824;20.288;2022-08-19T06:27:16;101775.88;;;17.49;85.64
13476;BME280;6810;63.824;20.288;2022-08-19T06:30:14;101776.97;;;17.59;86.03
13476;BME280;6810;63.824;20.288;2022-08-19T06:33:01;101768.56;;;17.63;85.58
13476;BME280;6810;63.824;20.288;2022-08-19T06:35:48;101766.28;;;17.70;85.19
13476;BME280;6810;63.824;20.288;2022-08-19T06:38:35;101772.19;;;17.75;85.32
13476;BME280;6810;63.824;20.288;2022-08-19T06:41:23;101767.56;;;17.77;85.78
13476;BME280;6810;63.824;20.288;2022-08-19T06:44:19;101755.56;;;17.81;85.61
13476;BME280;6810;63.824;20.288;2022-08-19T06:47:12;101745.00;;;17.78;85.34
13476;BME280;6810;63.824;20.288;2022-08-19T06:50:00;101756.75;;;17.89;85.64
13476;BME280;6810;63.824;20.288;2022-08-19T06:52:51;101760.06;;;17.93;85.39
13476;BME280;6810;63.824;20.288;2022-08-19T06:55:38;101756.22;;;17.97;85.05
13476;BME280;6810;63.824;20.288;2022-08-19T06:58:25;101754.16;;;18.00;84.56
13476;BME280;6810;63.824;20.288;2022-08-19T07:01:12;101760.16;;;18.04;84.71
13476;BME280;6810;63.824;20.288;2022-08-19T07:03:59;101766.97;;;18.09;85.36
13476;BME280;6810;63.824;20.288;2022-08-19T07:06:47;101761.97;;;18.16;85.02
13476;BME280;6810;63.824;20.288;2022-08-19T07:09:48;101757.34;;;18.18;84.56
13476;BME280;6810;63.824;20.288;2022-08-19T07:12:35;101763.28;;;18.23;84.92
13476;BME280;6810;63.824;20.288;2022-08-19T07:15:22;101741.47;;;18.13;84.89
13476;BME280;6810;63.824;20.288;2022-08-19T07:18:09;101769.81;;;18.31;84.42
13476;BME280;6810;63.824;20.288;2022-08-19T07:21:26;101765.94;;;18.35;84.16
13476;BME280;6810;63.824;20.288;2022-08-19T07:24:14;101763.53;;;18.43;84.77
13476;BME280;6810;63.824;20.288;2022-08-19T07:27:04;101749.81;;;18.46;84.67
13476;BME280;6810;63.824;20.288;2022-08-19T07:29:54;101747.50;;;18.53;84.12
13476;BME280;6810;63.824;20.288;2022-08-19T07:32:41;101747.06;;;18.59;84.42
13476;BME280;6810;63.824;20.288;2022-08-19T07:35:29;101759.50;;;18.61;83.74
13476;BME280;6810;63.824;20.288;2022-08-19T07:38:16;101755.47;;;18.67;84.30
13476;BME280;6810;63.824;20.288;2022-08-19T07:41:03;101766.91;;;18.70;83.86
13476;BME280;6810;63.824;20.288;2022-08-19T07:43:51;101775.63;;;18.74;83.77
13476;BME280;6810;63.824;20.288;2022-08-19T07:46:41;101771.72;;;18.78;83.79
13476;BME280;6810;63.824;20.288;2022-08-19T07:49:30;101776.66;;;18.84;83.34
13476;BME280;6810;63.824;20.288;2022-08-19T07:52:08;101768.09;;;18.90;83.95
13476;BME280;6810;63.824;20.288;2022-08-19T07:54:37;101774.00;;;18.95;83.32
13476;BME280;6810;63.824;20.288;2022-08-19T07:57:24;101769.22;;;18.98;83.54
13476;BME280;6810;63.824;20.288;2022-08-19T08:00:12;101773.31;;;19.04;83.49
13476;BME280;6810;63.824;20.288;2022-08-19T08:02:59;101780.19;;;19.08;82.88
13476;BME280;6810;63.824;20.288;2022-08-19T08:05:46;101783.41;;;19.13;82.76
13476;BME280;6810;63.824;20.288;2022-08-19T08:08:32;101783.16;;;19.16;82.70
13476;BME280;6810;63.824;20.288;2022-08-19T08:11:19;101777.28;;;19.22;82.82
13476;BME280;6810;63.824;20.288;2022-08-19T08:14:07;101768.81;;;19.27;82.25
13476;BME280;6810;63.824;20.288;2022-08-19T08:17:01;101768.38;;;19.33;82.44
13476;BME280;6810;63.824;20.288;2022-08-19T08:20:09;101762.47;;;19.39;82.43
13476;BME280;6810;63.824;20.288;2022-08-19T08:22:56;101763.84;;;19.44;82.41
13476;BME280;6810;63.824;20.288;2022-08-19T08:25:42;101752.41;;;19.52;82.31
13476;BME280;6810;63.824;20.288;2022-08-19T08:28:30;101763.72;;;19.57;81.95
13476;BME280;6810;63.824;20.288;2022-08-19T08:31:17;101766.06;;;19.61;82.03
13476;BME280;6810;63.824;20.288;2022-08-19T08:34:05;101756.75;;;19.65;82.15
13476;BME280;6810;63.824;20.288;2022-08-19T08:36:52;101748.50;;;19.67;81.86
13476;BME280;6810;63.824;20.288;2022-08-19T08:39:41;101753.06;;;19.77;81.47
13476;BME280;6810;63.824;20.288;2022-08-19T08:42:34;101750.81;;;19.82;81.67
13476;BME280;6810;63.824;20.288;2022-08-19T08:45:23;101755.75;;;19.88;81.51
13476;BME280;6810;63.824;20.288;2022-08-19T08:48:41;101760.56;;;19.96;81.41
13476;BME280;6810;63.824;20.288;2022-08-19T08:51:42;101737.78;;;19.87;81.32
13476;BME280;6810;63.824;20.288;2022-08-19T08:54:42;101764.00;;;20.09;81.18
13476;BME280;6810;63.824;20.288;2022-08-19T09:00:32;101762.91;;;20.22;80.60
13476;BME280;6810;63.824;20.288;2022-08-19T09:03:22;101760.69;;;20.27;80.45
13476;BME280;6810;63.824;20.288;2022-08-19T09:06:29;101771.00;;;20.33;79.96
13476;BME280;6810;63.824;20.288;2022-08-19T09:09:40;101770.38;;;20.41;80.02
13476;BME280;6810;63.824;20.288;2022-08-19T09:15:56;101754.84;;;20.54;79.31
13476;BME280;6810;63.824;20.288;2022-08-19T09:18:57;101749.31;;;20.55;79.00
13476;BME280;6810;63.824;20.288;2022-08-19T09:21:48;101754.66;;;20.67;78.83
13476;BME280;6810;63.824;20.288;2022-08-19T09:24:36;101757.31;;;20.78;78.56
13476;BME280;6810;63.824;20.288;2022-08-19T09:27:25;101750.03;;;20.89;78.07
13476;BME280;6810;63.824;20.288;2022-08-19T09:30:19;101741.97;;;20.99;77.73
13476;BME280;6810;63.824;20.288;2022-08-19T09:33:07;101741.19;;;21.08;77.80
13476;BME280;6810;63.824;20.288;2022-08-19T09:36:03;101729.38;;;21.09;77.07
13476;BME280;6810;63.824;20.288;2022-08-19T09:39:02;101744.78;;;21.29;77.24
13476;BME280;6810;63.824;20.288;2022-08-19T09:41:50;101751.94;;;21.50;77.58
13476;BME280;6810;63.824;20.288;2022-08-19T09:44:46;101747.31;;;21.71;76.87
13476;BME280;6810;63.824;20.288;2022-08-19T09:47:36;101745.53;;;21.81;75.62
13476;BME280;6810;63.824;20.288;2022-08-19T09:50:24;101755.03;;;21.96;75.64
13476;BME280;6810;63.824;20.288;2022-08-19T09:56:06;101741.34;;;22.07;74.61
13476;BME280;6810;63.824;20.288;2022-08-19T09:58:53;101765.16;;;22.34;74.71
13476;BME280;6810;63.824;20.288;2022-08-19T10:01:40;101757.59;;;22.47;74.29
13476;BME280;6810;63.824;20.288;2022-08-19T10:04:29;101753.78;;;22.59;73.63
13476;BME280;6810;63.824;20.288;2022-08-19T10:07:15;101756.66;;;22.67;73.46
13476;BME280;6810;63.824;20.288;2022-08-19T10:10:04;101753.81;;;22.78;73.01
13476;BME280;6810;63.824;20.288;2022-08-19T10:12:52;101758.41;;;22.87;72.70
13476;BME280;6810;63.824;20.288;2022-08-19T10:15:39;101757.53;;;22.96;72.56
13476;BME280;6810;63.824;20.288;2022-08-19T10:18:27;101754.97;;;23.04;71.97
13476;BME280;6810;63.824;20.288;2022-08-19T10:21:21;101756.09;;;23.21;71.27
13476;BME280;6810;63.824;20.288;2022-08-19T10:24:09;101757.53;;;23.34;70.52
13476;BME280;6810;63.824;20.288;2022-08-19T10:26:56;101769.13;;;23.46;71.16
13476;BME280;6810;63.824;20.288;2022-08-19T10:29:43;101763.66;;;23.55;69.86
13476;BME280;6810;63.824;20.288;2022-08-19T10:32:35;101764.50;;;23.65;69.20
13476;BME280;6810;63.824;20.288;2022-08-19T10:35:23;101763.75;;;23.73;68.98
13476;BME280;6810;63.824;20.288;2022-08-19T10:38:23;101770.31;;;23.80;68.25
13476;BME280;6810;63.824;20.288;2022-08-19T10:41:23;101770.47;;;23.78;68.73
13476;BME280;6810;63.824;20.288;2022-08-19T10:44:12;101777.06;;;23.76;68.73
13476;BME280;6810;63.824;20.288;2022-08-19T10:46:59;101767.31;;;23.73;68.56
13476;BME280;6810;63.824;20.288;2022-08-19T10:49:57;101753.78;;;23.54;68.59
13476;BME280;6810;63.824;20.288;2022-08-19T10:52:45;101768.19;;;23.64;68.03
13476;BME280;6810;63.824;20.288;2022-08-19T10:55:35;101765.69;;;23.53;67.86
13476;BME280;6810;63.824;20.288;2022-08-19T10:58:21;101767.25;;;23.46;68.73
13476;BME280;6810;63.824;20.288;2022-08-19T11:01:11;101763.97;;;23.43;68.64
13476;BME280;6810;63.824;20.288;2022-08-19T11:03:59;101764.25;;;23.40;69.16
13476;BME280;6810;63.824;20.288;2022-08-19T11:06:48;101754.66;;;23.36;68.78
13476;BME280;6810;63.824;20.288;2022-08-19T11:09:40;101754.09;;;23.32;69.16
13476;BME280;6810;63.824;20.288;2022-08-19T11:12:27;101760.53;;;23.31;69.21
13476;BME280;6810;63.824;20.288;2022-08-19T11:15:14;101754.66;;;23.36;69.71
13476;BME280;6810;63.824;20.288;2022-08-19T11:18:02;101759.09;;;23.46;69.13
13476;BME280;6810;63.824;20.288;2022-08-19T11:20:49;101752.31;;;23.60;69.00
13476;BME280;6810;63.824;20.288;2022-08-19T11:23:36;101760.16;;;23.72;68.60
13476;BME280;6810;63.824;20.288;2022-08-19T11:26:24;101760.28;;;23.80;68.89
13476;BME280;6810;63.824;20.288;2022-08-19T11:29:13;101752.22;;;23.88;68.31
13476;BME280;6810;63.824;20.288;2022-08-19T11:32:04;101750.50;;;23.97;68.07
13476;BME280;6810;63.824;20.288;2022-08-19T11:34:52;101757.34;;;24.01;67.14
13476;BME280;6810;63.824;20.288;2022-08-19T11:37:39;101754.63;;;24.01;67.23
13476;BME280;6810;63.824;20.288;2022-08-19T11:40:26;101755.63;;;24.00;67.74
13476;BME280;6810;63.824;20.288;2022-08-19T11:43:13;101759.50;;;24.07;67.63
13476;BME280;6810;63.824;20.288;2022-08-19T11:46:04;101758.59;;;24.16;67.04
13476;BME280;6810;63.824;20.288;2022-08-19T11:48:52;101745.78;;;24.17;66.58
13476;BME280;6810;63.824;20.288;2022-08-19T11:51:40;101745.03;;;24.24;66.29
13476;BME280;6810;63.824;20.288;2022-08-19T11:54:28;101740.59;;;24.23;66.02
13476;BME280;6810;63.824;20.288;2022-08-19T11:57:15;101748.31;;;24.28;66.39
13476;BME280;6810;63.824;20.288;2022-08-19T12:00:03;101750.91;;;24.29;65.82
13476;BME280;6810;63.824;20.288;2022-08-19T12:02:51;101744.56;;;24.29;66.37
13476;BME280;6810;63.824;20.288;2022-08-19T12:05:39;101737.41;;;24.28;65.64
13476;BME280;6810;63.824;20.288;2022-08-19T12:08:26;101742.31;;;24.24;65.55
13476;BME280;6810;63.824;20.288;2022-08-19T12:11:13;101743.78;;;24.19;65.66
13476;BME280;6810;63.824;20.288;2022-08-19T12:14:00;101737.94;;;24.14;65.93
13476;BME280;6810;63.824;20.288;2022-08-19T12:16:48;101719.91;;;23.93;66.51
13476;BME280;6810;63.824;20.288;2022-08-19T12:19:36;101731.13;;;24.00;66.41
13476;BME280;6810;63.824;20.288;2022-08-19T12:22:23;101738.28;;;24.01;66.47
13476;BME280;6810;63.824;20.288;2022-08-19T12:25:11;101709.09;;;23.84;66.83
13476;BME280;6810;63.824;20.288;2022-08-19T12:27:58;101733.13;;;23.98;66.84
13476;BME280;6810;63.824;20.288;2022-08-19T12:30:46;101720.06;;;23.92;66.83
13476;BME280;6810;63.824;20.288;2022-08-19T12:33:33;101726.13;;;23.96;67.26
13476;BME280;6810;63.824;20.288;2022-08-19T12:36:21;101719.91;;;23.93;66.94
13476;BME280;6810;63.824;20.288;2022-08-19T12:39:08;101717.34;;;23.92;67.32
13476;BME280;6810;63.824;20.288;2022-08-19T12:41:55;101722.25;;;23.88;67.32
13476;BME280;6810;63.824;20.288;2022-08-19T12:44:43;101705.06;;;23.88;67.62
13476;BME280;6810;63.824;20.288;2022-08-19T12:47:32;101708.78;;;23.87;67.59
13476;BME280;6810;63.824;20.288;2022-08-19T12:50:21;101711.66;;;23.85;68.30
13476;BME280;6810;63.824;20.288;2022-08-19T12:53:08;101715.00;;;23.79;67.77
13476;BME280;6810;63.824;20.288;2022-08-19T12:55:56;101721.44;;;23.78;67.47
13476;BME280;6810;63.824;20.288;2022-08-19T12:58:48;101711.84;;;23.74;67.55
13476;BME280;6810;63.824;20.288;2022-08-19T13:01:35;101710.25;;;23.72;68.63
13476;BME280;6810;63.824;20.288;2022-08-19T13:04:22;101710.25;;;23.72;68.57
13476;BME280;6810;63.824;20.288;2022-08-19T13:07:09;101710.84;;;23.75;68.50
13476;BME280;6810;63.824;20.288;2022-08-19T13:09:57;101668.91;;;23.59;68.36
13476;BME280;6810;63.824;20.288;2022-08-19T13:12:46;101702.78;;;23.83;68.10
13476;BME280;6810;63.824;20.288;2022-08-19T13:15:41;101704.50;;;23.84;68.17
13476;BME280;6810;63.824;20.288;2022-08-19T13:18:28;101700.94;;;23.84;68.58
13476;BME280;6810;63.824;20.288;2022-08-19T13:21:15;101701.91;;;23.83;68.06
13476;BME280;6810;63.824;20.288;2022-08-19T13:24:03;101701.75;;;23.84;68.29
13476;BME280;6810;63.824;20.288;2022-08-19T13:26:56;101710.94;;;23.83;68.67
13476;BME280;6810;63.824;20.288;2022-08-19T13:29:43;101706.81;;;23.79;68.77
13476;BME280;6810;63.824;20.288;2022-08-19T13:32:30;101706.25;;;23.76;68.75
13476;BME280;6810;63.824;20.288;2022-08-19T13:35:16;101688.25;;;23.65;68.84
13476;BME280;6810;63.824;20.288;2022-08-19T13:38:03;101693.94;;;23.72;68.68
13476;BME280;6810;63.824;20.288;2022-08-19T13:40:52;101685.91;;;23.70;68.61
13476;BME280;6810;63.824;20.288;2022-08-19T13:43:40;101689.66;;;23.69;69.48
13476;BME280;6810;63.824;20.288;2022-08-19T13:46:27;101682.50;;;23.68;70.01
13476;BME280;6810;63.824;20.288;2022-08-19T13:49:20;101677.06;;;23.68;69.29
13476;BME280;6810;63.824;20.288;2022-08-19T13:52:07;101679.16;;;23.74;69.26
13476;BME280;6810;63.824;20.288;2022-08-19T13:54:54;101685.50;;;23.75;69.85
13476;BME280;6810;63.824;20.288;2022-08-19T13:57:55;101673.72;;;23.74;69.66
13476;BME280;6810;63.824;20.288;2022-08-19T14:00:44;101658.44;;;23.64;69.49
13476;BME280;6810;63.824;20.288;2022-08-19T14:03:32;101675.00;;;23.70;70.07
13476;BME280;6810;63.824;20.288;2022-08-19T14:06:19;101669.72;;;23.69;69.81
13476;BME280;6810;63.824;20.288;2022-08-19T14:09:06;101669.47;;;23.62;69.98
13476;BME280;6810;63.824;20.288;2022-08-19T14:11:53;101670.31;;;23.63;70.48
13476;BME280;6810;63.824;20.288;2022-08-19T14:14:52;101656.84;;;23.61;70.71
13476;BME280;6810;63.824;20.288;2022-08-19T14:17:43;101651.81;;;23.66;70.21
13476;BME280;6810;63.824;20.288;2022-08-19T14:20:34;101652.84;;;23.65;70.39
13476;BME280;6810;63.824;20.288;2022-08-19T14:23:21;101634.41;;;23.59;70.79
13476;BME280;6810;63.824;20.288;2022-08-19T14:26:10;101633.94;;;23.64;70.82
13476;BME280;6810;63.824;20.288;2022-08-19T14:28:59;101642.25;;;23.62;70.87
13476;BME280;6810;63.824;20.288;2022-08-19T14:31:46;101645.13;;;23.61;70.77
13476;BME280;6810;63.824;20.288;2022-08-19T14:34:37;101639.38;;;23.64;70.55
13476;BME280;6810;63.824;20.288;2022-08-19T14:37:24;101645.66;;;23.64;70.59
13476;BME280;6810;63.824;20.288;2022-08-19T14:40:17;101639.53;;;23.62;71.32
13476;BME280;6810;63.824;20.288;2022-08-19T14:43:05;101637.25;;;23.58;71.42
13476;BME280;6810;63.824;20.288;2022-08-19T14:45:52;101633.69;;;23.57;70.94
13476;BME280;6810;63.824;20.288;2022-08-19T14:48:42;101623.81;;;23.56;71.03
13476;BME280;6810;63.824;20.288;2022-08-19T14:51:35;101636.56;;;23.56;71.24
13476;BME280;6810;63.824;20.288;2022-08-19T14:54:22;101607.69;;;23.36;70.63
13476;BME280;6810;63.824;20.288;2022-08-19T14:57:12;101634.69;;;23.56;70.66
13476;BME280;6810;63.824;20.288;2022-08-19T14:59:59;101635.00;;;23.53;70.66